sensor_id;sensor_type;location;lat;lon;timestamp;pressure;altitude;pressure_sealevel;temperature;humidity
17785;BME280;9016;53.582;10.062;2023-05-09T00:00:01;102010.63;;;14.88;39.40
17785;BME280;9016;53.582;10.062;2023-05-09T00:02:32;102010.13;;;14.66;39.58
17785;BME280;9016;53.582;10.062;2023-05-09T00:05:01;102010.31;;;14.79;39.31
17785;BME280;9016;53.582;10.062;2023-05-09T00:07:29;102009.53;;;14.77;39.50
17785;BME280;9016;53.582;10.062;2023-05-09T00:09:59;102019.06;;;14.82;39.12
17785;BME280;9016;53.582;10.062;2023-05-09T00:12:27;102015.31;;;14.85;39.17
17785;BME280;9016;53.582;10.062;2023-05-09T00:14:56;102010.13;;;14.82;39.45
17785;BME280;9016;53.582;10.062;2023-05-09T00:17:23;102015.31;;;14.85;39.30
17785;BME280;9016;53.582;10.062;2023-05-09T00:19:52;102012.91;;;14.80;39.74
17785;BME280;9016;53.582;10.062;2023-05-09T00:22:21;102009.78;;;14.72;39.85
17785;BME280;9016;53.582;10.062;2023-05-09T00:24:49;102004.16;;;14.61;39.74
17785;BME280;9016;53.582;10.062;2023-05-09T00:27:29;102010.59;;;14.59;40.00
17785;BME280;9016;53.582;10.062;2023-05-09T00:29:59;101998.88;;;14.60;40.19
17785;BME280;9016;53.582;10.062;2023-05-09T00:32:28;101993.72;;;14.57;40.33
17785;BME280;9016;53.582;10.062;2023-05-09T00:34:57;101997.66;;;14.50;40.27
17785;BME280;9016;53.582;10.062;2023-05-09T00:37:25;101989.91;;;14.45;40.30
17785;BME280;9016;53.582;10.062;2023-05-09T00:39:55;101985.97;;;14.35;40.82
17785;BME280;9016;53.582;10.062;2023-05-09T00:42:24;101984.50;;;14.30;40.79
17785;BME280;9016;53.582;10.062;2023-05-09T00:44:52;101971.06;;;14.31;40.92
17785;BME280;9016;53.582;10.062;2023-05-09T00:47:22;101973.34;;;14.37;40.52
17785;BME280;9016;53.582;10.062;2023-05-09T00:49:52;101976.03;;;14.37;41.04
17785;BME280;9016;53.582;10.062;2023-05-09T00:52:20;101974.00;;;14.42;40.99
17785;BME280;9016;53.582;10.062;2023-05-09T00:54:51;101968.00;;;14.37;41.00
17785;BME280;9016;53.582;10.062;2023-05-09T00:57:20;101969.84;;;14.37;41.05
17785;BME280;9016;53.582;10.062;2023-05-09T00:59:50;101964.53;;;14.35;41.16
17785;BME280;9016;53.582;10.062;2023-05-09T01:02:18;101964.91;;;14.29;41.50
17785;BME280;9016;53.582;10.062;2023-05-09T01:04:47;101965.97;;;14.25;41.31
17785;BME280;9016;53.582;10.062;2023-05-09T01:07:20;101951.78;;;14.08;41.90
17785;BME280;9016;53.582;10.062;2023-05-09T01:09:54;101954.41;;;14.09;41.94
17785;BME280;9016;53.582;10.062;2023-05-09T01:12:30;101946.34;;;14.09;41.97
17785;BME280;9016;53.582;10.062;2023-05-09T01:15:09;101946.41;;;14.08;42.24
17785;BME280;9016;53.582;10.062;2023-05-09T01:17:48;101937.88;;;14.01;42.15
17785;BME280;9016;53.582;10.062;2023-05-09T01:20:22;101941.84;;;13.94;42.61
17785;BME280;9016;53.582;10.062;2023-05-09T01:23:09;101932.84;;;13.95;42.61
17785;BME280;9016;53.582;10.062;2023-05-09T01:25:59;101932.97;;;13.76;42.80
17785;BME280;9016;53.582;10.062;2023-05-09T01:28:59;101929.50;;;13.74;43.25
17785;BME280;9016;53.582;10.062;2023-05-09T01:31:37;101924.09;;;13.76;43.09
17785;BME280;9016;53.582;10.062;2023-05-09T01:34:08;101920.16;;;13.66;43.16
17785;BME280;9016;53.582;10.062;2023-05-09T01:36:39;101915.75;;;13.65;43.48
17785;BME280;9016;53.582;10.062;2023-05-09T01:39:11;101915.31;;;13.57;43.87
17785;BME280;9016;53.582;10.062;2023-05-09T01:41:40;101913.75;;;13.53;43.73
17785;BME280;9016;53.582;10.062;2023-05-09T01:44:10;101913.84;;;13.51;44.09
17785;BME280;9016;53.582;10.062;2023-05-09T01:46:41;101912.63;;;13.57;43.80
17785;BME280;9016;53.582;10.062;2023-05-09T01:49:11;101908.00;;;13.43;44.28
17785;BME280;9016;53.582;10.062;2023-05-09T01:51:40;101907.91;;;13.45;44.33
17785;BME280;9016;53.582;10.062;2023-05-09T01:54:10;101916.75;;;13.47;44.15
17785;BME280;9016;53.582;10.062;2023-05-09T01:56:40;101912.44;;;13.44;44.55
17785;BME280;9016;53.582;10.062;2023-05-09T01:59:09;101912.44;;;13.44;44.75
17785;BME280;9016;53.582;10.062;2023-05-09T02:01:43;101911.19;;;13.34;44.59
17785;BME280;9016;53.582;10.062;2023-05-09T02:04:13;101912.28;;;13.30;45.05
17785;BME280;9016;53.582;10.062;2023-05-09T02:06:43;101908.91;;;13.27;45.11
17785;BME280;9016;53.582;10.062;2023-05-09T02:09:15;101906.53;;;13.21;45.29
17785;BME280;9016;53.582;10.062;2023-05-09T02:11:44;101905.00;;;13.17;45.48
17785;BME280;9016;53.582;10.062;2023-05-09T02:14:13;101905.31;;;13.11;45.67
17785;BME280;9016;53.582;10.062;2023-05-09T02:16:43;101907.69;;;13.17;45.78
17785;BME280;9016;53.582;10.062;2023-05-09T02:19:11;101911.28;;;13.16;45.71
17785;BME280;9016;53.582;10.062;2023-05-09T02:21:40;101909.78;;;13.10;46.10
17785;BME280;9016;53.582;10.062;2023-05-09T02:24:08;101911.06;;;13.03;46.17
17785;BME280;9016;53.582;10.062;2023-05-09T02:26:38;101900.03;;;13.09;46.35
17785;BME280;9016;53.582;10.062;2023-05-09T02:29:07;101900.34;;;13.03;46.44
17785;BME280;9016;53.582;10.062;2023-05-09T02:31:39;101900.03;;;13.09;46.51
17785;BME280;9016;53.582;10.062;2023-05-09T02:34:13;101901.84;;;13.09;46.42
17785;BME280;9016;53.582;10.062;2023-05-09T02:36:42;101908.28;;;13.05;46.67
17785;BME280;9016;53.582;10.062;2023-05-09T02:39:10;101898.59;;;13.02;46.86
17785;BME280;9016;53.582;10.062;2023-05-09T02:41:38;101891.38;;;13.04;46.61
17785;BME280;9016;53.582;10.062;2023-05-09T02:44:08;101895.28;;;12.97;47.00
17785;BME280;9016;53.582;10.062;2023-05-09T02:46:39;101896.31;;;12.94;47.42
17785;BME280;9016;53.582;10.062;2023-05-09T02:49:11;101888.34;;;12.93;47.35
17785;BME280;9016;53.582;10.062;2023-05-09T02:51:56;101894.56;;;12.93;47.60
17785;BME280;9016;53.582;10.062;2023-05-09T02:54:27;101892.19;;;12.87;47.75
17785;BME280;9016;53.582;10.062;2023-05-09T02:56:56;101889.22;;;12.93;47.56
17785;BME280;9016;53.582;10.062;2023-05-09T02:59:25;101887.81;;;12.86;47.75
17785;BME280;9016;53.582;10.062;2023-05-09T03:01:53;101876.63;;;12.78;48.26
17785;BME280;9016;53.582;10.062;2023-05-09T03:04:26;101878.53;;;12.59;48.86
17785;BME280;9016;53.582;10.062;2023-05-09T03:06:54;101881.22;;;12.59;48.82
17785;BME280;9016;53.582;10.062;2023-05-09T03:09:25;101880.41;;;12.57;49.11
17785;BME280;9016;53.582;10.062;2023-05-09T03:11:56;101877.03;;;12.54;49.06
17785;BME280;9016;53.582;10.062;2023-05-09T03:14:26;101872.59;;;12.53;49.15
17785;BME280;9016;53.582;10.062;2023-05-09T03:16:54;101879.28;;;12.44;49.62
17785;BME280;9016;53.582;10.062;2023-05-09T03:19:22;101867.59;;;12.47;49.41
17785;BME280;9016;53.582;10.062;2023-05-09T03:21:53;101872.38;;;12.40;49.71
17785;BME280;9016;53.582;10.062;2023-05-09T03:24:22;101874.53;;;12.32;49.77
17785;BME280;9016;53.582;10.062;2023-05-09T03:26:50;101873.81;;;12.29;50.03
17785;BME280;9016;53.582;10.062;2023-05-09T03:29:18;101874.00;;;12.26;50.12
17785;BME280;9016;53.582;10.062;2023-05-09T03:31:46;101864.66;;;12.16;50.50
17785;BME280;9016;53.582;10.062;2023-05-09T03:34:15;101864.13;;;12.09;50.58
17785;BME280;9016;53.582;10.062;2023-05-09T03:36:43;101867.25;;;12.00;51.49
17785;BME280;9016;53.582;10.062;2023-05-09T03:39:19;101862.34;;;11.91;51.51
17785;BME280;9016;53.582;10.062;2023-05-09T03:41:47;101861.25;;;11.95;51.43
17785;BME280;9016;53.582;10.062;2023-05-09T03:44:15;101856.22;;;11.89;51.91
17785;BME280;9016;53.582;10.062;2023-05-09T03:46:51;101852.81;;;11.85;52.09
17785;BME280;9016;53.582;10.062;2023-05-09T03:49:22;101848.63;;;11.80;52.33
17785;BME280;9016;53.582;10.062;2023-05-09T03:51:50;101849.72;;;11.76;52.79
17785;BME280;9016;53.582;10.062;2023-05-09T03:54:21;101848.03;;;11.73;52.80
17785;BME280;9016;53.582;10.062;2023-05-09T03:56:50;101845.16;;;11.78;52.64
17785;BME280;9016;53.582;10.062;2023-05-09T03:59:18;101848.91;;;11.74;52.68
17785;BME280;9016;53.582;10.062;2023-05-09T04:01:49;101843.84;;;11.68;52.76
17785;BME280;9016;53.582;10.062;2023-05-09T04:04:20;101847.81;;;11.59;53.24
17785;BME280;9016;53.582;10.062;2023-05-09T04:06:48;101844.25;;;11.59;53.51
17785;BME280;9016;53.582;10.062;2023-05-09T04:09:17;101854.94;;;11.59;53.67
17785;BME280;9016;53.582;10.062;2023-05-09T04:11:47;101849.34;;;11.65;53.43
17785;BME280;9016;53.582;10.062;2023-05-09T04:14:15;101843.66;;;11.72;53.05
17785;BME280;9016;53.582;10.062;2023-05-09T04:16:46;101847.13;;;11.74;53.14
17785;BME280;9016;53.582;10.062;2023-05-09T04:19:18;101842.88;;;11.70;53.45
17785;BME280;9016;53.582;10.062;2023-05-09T04:21:46;101837.16;;;11.78;53.39
17785;BME280;9016;53.582;10.062;2023-05-09T04:24:14;101838.75;;;11.82;53.08
17785;BME280;9016;53.582;10.062;2023-05-09T04:26:47;101831.75;;;11.79;53.39
17785;BME280;9016;53.582;10.062;2023-05-09T04:29:15;101829.44;;;11.72;53.69
17785;BME280;9016;53.582;10.062;2023-05-09T04:31:43;101833.25;;;11.66;53.99
17785;BME280;9016;53.582;10.062;2023-05-09T04:34:14;101823.53;;;11.65;54.01
17785;BME280;9016;53.582;10.062;2023-05-09T04:36:42;101827.09;;;11.64;53.96
17785;BME280;9016;53.582;10.062;2023-05-09T04:39:10;101826.44;;;11.59;54.53
17785;BME280;9016;53.582;10.062;2023-05-09T04:41:41;101822.91;;;11.59;54.63
17785;BME280;9016;53.582;10.062;2023-05-09T04:44:11;101819.53;;;11.55;54.82
17785;BME280;9016;53.582;10.062;2023-05-09T04:46:39;101821.31;;;11.55;54.80
17785;BME280;9016;53.582;10.062;2023-05-09T04:49:07;101825.38;;;11.63;54.95
17785;BME280;9016;53.582;10.062;2023-05-09T04:51:35;101819.91;;;11.66;54.99
17785;BME280;9016;53.582;10.062;2023-05-09T04:54:03;101813.25;;;11.75;54.73
17785;BME280;9016;53.582;10.062;2023-05-09T04:56:32;101810.28;;;11.81;54.51
17785;BME280;9016;53.582;10.062;2023-05-09T04:59:00;101814.63;;;11.83;54.65
17785;BME280;9016;53.582;10.062;2023-05-09T05:01:30;101817.84;;;11.90;54.42
17785;BME280;9016;53.582;10.062;2023-05-09T05:03:58;101804.88;;;11.82;54.61
17785;BME280;9016;53.582;10.062;2023-05-09T05:06:28;101808.25;;;11.86;54.45
17785;BME280;9016;53.582;10.062;2023-05-09T05:08:57;101797.28;;;11.92;54.38
17785;BME280;9016;53.582;10.062;2023-05-09T05:11:25;101796.19;;;11.96;54.19
17785;BME280;9016;53.582;10.062;2023-05-09T05:13:53;101795.91;;;12.02;54.04
17785;BME280;9016;53.582;10.062;2023-05-09T05:16:21;101786.31;;;11.98;54.25
17785;BME280;9016;53.582;10.062;2023-05-09T05:18:51;101788.69;;;12.04;53.92
17785;BME280;9016;53.582;10.062;2023-05-09T05:21:21;101781.34;;;11.90;54.62
17785;BME280;9016;53.582;10.062;2023-05-09T05:23:49;101776.50;;;11.99;54.36
17785;BME280;9016;53.582;10.062;2023-05-09T05:26:17;101787.50;;;12.10;54.27
17785;BME280;9016;53.582;10.062;2023-05-09T05:28:45;101771.81;;;12.21;53.69
17785;BME280;9016;53.582;10.062;2023-05-09T05:31:13;101772.84;;;12.35;53.85
17785;BME280;9016;53.582;10.062;2023-05-09T05:33:42;101772.75;;;12.37;53.49
17785;BME280;9016;53.582;10.062;2023-05-09T05:36:12;101776.03;;;12.42;53.74
17785;BME280;9016;53.582;10.062;2023-05-09T05:38:40;101764.66;;;12.55;53.38
17785;BME280;9016;53.582;10.062;2023-05-09T05:41:09;101773.59;;;12.54;52.83
17785;BME280;9016;53.582;10.062;2023-05-09T05:43:37;101765.34;;;12.59;53.02
17785;BME280;9016;53.582;10.062;2023-05-09T05:46:06;101752.59;;;12.64;52.59
17785;BME280;9016;53.582;10.062;2023-05-09T05:48:34;101748.91;;;12.66;52.75
17785;BME280;9016;53.582;10.062;2023-05-09T05:51:02;101757.53;;;12.71;52.37
17785;BME280;9016;53.582;10.062;2023-05-09T05:53:31;101751.78;;;12.79;52.47
17785;BME280;9016;53.582;10.062;2023-05-09T05:56:05;101752.47;;;13.00;52.10
17785;BME280;9016;53.582;10.062;2023-05-09T05:58:36;101748.63;;;13.21;51.73
17785;BME280;9016;53.582;10.062;2023-05-09T06:01:06;101744.84;;;13.25;51.54
17785;BME280;9016;53.582;10.062;2023-05-09T06:03:37;101749.41;;;13.23;51.06
17785;BME280;9016;53.582;10.062;2023-05-09T06:06:06;101753.28;;;13.17;51.29
17785;BME280;9016;53.582;10.062;2023-05-09T06:08:36;101744.56;;;13.14;51.14
17785;BME280;9016;53.582;10.062;2023-05-09T06:11:04;101749.34;;;13.24;51.28
17785;BME280;9016;53.582;10.062;2023-05-09T06:13:33;101750.03;;;13.28;51.03
17785;BME280;9016;53.582;10.062;2023-05-09T06:16:01;101739.66;;;13.37;51.21
17785;BME280;9016;53.582;10.062;2023-05-09T06:18:45;101743.13;;;13.39;51.41
17785;BME280;9016;53.582;10.062;2023-05-09T06:21:16;101749.59;;;13.51;50.79
17785;BME280;9016;53.582;10.062;2023-05-09T06:23:45;101744.25;;;13.66;51.07
17785;BME280;9016;53.582;10.062;2023-05-09T06:26:34;101753.66;;;13.73;50.56
17785;BME280;9016;53.582;10.062;2023-05-09T06:29:02;101745.53;;;13.59;50.75
17785;BME280;9016;53.582;10.062;2023-05-09T06:31:31;101748.66;;;13.67;50.78
17785;BME280;9016;53.582;10.062;2023-05-09T06:34:04;101737.59;;;13.73;50.23
17785;BME280;9016;53.582;10.062;2023-05-09T06:36:32;101719.28;;;13.66;50.72
17785;BME280;9016;53.582;10.062;2023-05-09T06:39:01;101717.22;;;14.01;50.84
17785;BME280;9016;53.582;10.062;2023-05-09T06:41:29;101718.25;;;14.57;49.48
17785;BME280;9016;53.582;10.062;2023-05-09T06:43:57;101708.88;;;15.21;47.83
17785;BME280;9016;53.582;10.062;2023-05-09T06:46:28;101704.09;;;16.82;44.02
17785;BME280;9016;53.582;10.062;2023-05-09T06:48:56;101697.69;;;18.39;41.33
17785;BME280;9016;53.582;10.062;2023-05-09T06:51:24;101685.25;;;19.92;37.86
17785;BME280;9016;53.582;10.062;2023-05-09T06:53:52;101679.06;;;21.04;35.72
17785;BME280;9016;53.582;10.062;2023-05-09T06:56:22;101674.53;;;21.23;34.36
17785;BME280;9016;53.582;10.062;2023-05-09T06:58:51;101672.31;;;21.28;34.36
17785;BME280;9016;53.582;10.062;2023-05-09T07:01:19;101671.53;;;22.04;33.42
17785;BME280;9016;53.582;10.062;2023-05-09T07:03:50;101661.28;;;21.98;32.86
17785;BME280;9016;53.582;10.062;2023-05-09T07:06:18;101660.91;;;22.49;32.57
17785;BME280;9016;53.582;10.062;2023-05-09T07:08:46;101657.78;;;23.00;31.79
17785;BME280;9016;53.582;10.062;2023-05-09T07:11:14;101656.91;;;23.26;31.53
17785;BME280;9016;53.582;10.062;2023-05-09T07:13:46;101646.88;;;23.81;30.53
17785;BME280;9016;53.582;10.062;2023-05-09T07:16:14;101649.38;;;24.35;29.86
17785;BME280;9016;53.582;10.062;2023-05-09T07:18:44;101649.31;;;24.71;29.26
17785;BME280;9016;53.582;10.062;2023-05-09T07:21:12;101650.41;;;25.19;29.02
17785;BME280;9016;53.582;10.062;2023-05-09T07:23:40;101642.69;;;25.57;28.07
17785;BME280;9016;53.582;10.062;2023-05-09T07:26:08;101646.50;;;25.64;27.81
17785;BME280;9016;53.582;10.062;2023-05-09T07:28:36;101640.88;;;25.97;27.57
17785;BME280;9016;53.582;10.062;2023-05-09T07:31:06;101636.50;;;26.28;27.29
17785;BME280;9016;53.582;10.062;2023-05-09T07:33:35;101642.22;;;26.66;26.64
17785;BME280;9016;53.582;10.062;2023-05-09T07:36:03;101636.09;;;26.56;26.32
17785;BME280;9016;53.582;10.062;2023-05-09T07:38:31;101629.69;;;26.95;27.13
17785;BME280;9016;53.582;10.062;2023-05-09T07:40:59;101623.44;;;26.55;26.72
17785;BME280;9016;53.582;10.062;2023-05-09T07:43:27;101616.97;;;27.10;27.46
17785;BME280;9016;53.582;10.062;2023-05-09T07:45:55;101611.06;;;27.83;26.44
17785;BME280;9016;53.582;10.062;2023-05-09T07:48:25;101610.28;;;28.57;25.01
17785;BME280;9016;53.582;10.062;2023-05-09T07:50:53;101601.13;;;28.27;24.90
17785;BME280;9016;53.582;10.062;2023-05-09T07:53:21;101604.63;;;27.76;25.17
17785;BME280;9016;53.582;10.062;2023-05-09T07:55:49;101594.09;;;27.34;25.94
17785;BME280;9016;53.582;10.062;2023-05-09T07:58:16;101593.72;;;27.90;25.88
17785;BME280;9016;53.582;10.062;2023-05-09T08:00:45;101585.13;;;28.53;24.55
17785;BME280;9016;53.582;10.062;2023-05-09T08:03:13;101594.72;;;28.49;24.44
17785;BME280;9016;53.582;10.062;2023-05-09T08:05:42;101590.72;;;28.37;25.10
17785;BME280;9016;53.582;10.062;2023-05-09T08:08:10;101577.22;;;29.08;24.40
17785;BME280;9016;53.582;10.062;2023-05-09T08:10:38;101584.25;;;29.82;23.14
17785;BME280;9016;53.582;10.062;2023-05-09T08:13:07;101577.88;;;30.03;22.78
17785;BME280;9016;53.582;10.062;2023-05-09T08:15:35;101583.81;;;30.06;23.18
17785;BME280;9016;53.582;10.062;2023-05-09T08:18:03;101572.06;;;29.91;23.26
17785;BME280;9016;53.582;10.062;2023-05-09T08:20:32;101563.41;;;29.94;22.90
17785;BME280;9016;53.582;10.062;2023-05-09T08:23:01;101562.44;;;29.09;23.66
17785;BME280;9016;53.582;10.062;2023-05-09T08:25:30;101559.91;;;29.08;23.87
17785;BME280;9016;53.582;10.062;2023-05-09T08:27:58;101562.44;;;29.24;23.59
17785;BME280;9016;53.582;10.062;2023-05-09T08:30:26;101557.25;;;29.92;22.58
17785;BME280;9016;53.582;10.062;2023-05-09T08:32:55;101557.44;;;30.12;22.73
17785;BME280;9016;53.582;10.062;2023-05-09T08:35:23;101547.94;;;30.42;22.09
17785;BME280;9016;53.582;10.062;2023-05-09T08:37:50;101553.44;;;30.42;22.13
17785;BME280;9016;53.582;10.062;2023-05-09T08:40:20;101548.28;;;30.33;22.62
17785;BME280;9016;53.582;10.062;2023-05-09T08:42:48;101545.22;;;31.30;21.89
17785;BME280;9016;53.582;10.062;2023-05-09T08:45:24;101545.97;;;30.08;22.13
17785;BME280;9016;53.582;10.062;2023-05-09T08:47:53;101548.78;;;29.52;22.64
17785;BME280;9016;53.582;10.062;2023-05-09T08:50:21;101541.47;;;29.38;23.21
17785;BME280;9016;53.582;10.062;2023-05-09T08:52:50;101540.38;;;29.95;22.94
17785;BME280;9016;53.582;10.062;2023-05-09T08:55:20;101545.91;;;30.02;22.49
17785;BME280;9016;53.582;10.062;2023-05-09T08:57:48;101532.31;;;30.21;22.33
17785;BME280;9016;53.582;10.062;2023-05-09T09:00:16;101542.31;;;30.57;22.02
17785;BME280;9016;53.582;10.062;2023-05-09T09:02:47;101533.69;;;30.32;22.36
17785;BME280;9016;53.582;10.062;2023-05-09T09:05:15;101533.41;;;30.55;21.60
17785;BME280;9016;53.582;10.062;2023-05-09T09:08:06;101512.88;;;30.91;21.95
17785;BME280;9016;53.582;10.062;2023-05-09T09:10:39;101512.59;;;31.40;20.98
17785;BME280;9016;53.582;10.062;2023-05-09T09:13:11;101519.91;;;32.00;21.15
17785;BME280;9016;53.582;10.062;2023-05-09T09:15:42;101505.34;;;31.26;20.57
17785;BME280;9016;53.582;10.062;2023-05-09T09:18:11;101510.56;;;30.95;21.23
17785;BME280;9016;53.582;10.062;2023-05-09T09:20:47;101516.63;;;30.43;21.60
17785;BME280;9016;53.582;10.062;2023-05-09T09:23:18;101506.00;;;29.85;21.84
17785;BME280;9016;53.582;10.062;2023-05-09T09:25:48;101503.84;;;29.59;22.65
17785;BME280;9016;53.582;10.062;2023-05-09T09:28:16;101504.63;;;30.23;22.22
17785;BME280;9016;53.582;10.062;2023-05-09T09:30:46;101510.25;;;29.66;22.55
17785;BME280;9016;53.582;10.062;2023-05-09T09:33:21;101497.91;;;29.56;22.67
17785;BME280;9016;53.582;10.062;2023-05-09T09:35:51;101501.78;;;29.61;22.58
17785;BME280;9016;53.582;10.062;2023-05-09T09:38:21;101492.97;;;28.44;23.66
17785;BME280;9016;53.582;10.062;2023-05-09T09:40:55;101488.38;;;27.56;24.73
17785;BME280;9016;53.582;10.062;2023-05-09T09:43:27;101490.47;;;27.54;25.43
17785;BME280;9016;53.582;10.062;2023-05-09T09:45:55;101473.97;;;27.39;24.94
17785;BME280;9016;53.582;10.062;2023-05-09T09:48:24;101478.03;;;26.51;25.67
17785;BME280;9016;53.582;10.062;2023-05-09T09:50:53;101469.06;;;26.34;26.30
17785;BME280;9016;53.582;10.062;2023-05-09T09:53:25;101468.63;;;25.83;26.64
17785;BME280;9016;53.582;10.062;2023-05-09T09:55:57;101464.72;;;25.37;27.11
17785;BME280;9016;53.582;10.062;2023-05-09T09:58:25;101474.03;;;24.94;27.57
17785;BME280;9016;53.582;10.062;2023-05-09T10:01:06;101462.13;;;25.03;27.58
17785;BME280;9016;53.582;10.062;2023-05-09T10:03:36;101456.16;;;25.00;27.62
17785;BME280;9016;53.582;10.062;2023-05-09T10:06:08;101455.72;;;25.44;27.12
17785;BME280;9016;53.582;10.062;2023-05-09T10:08:37;101454.16;;;25.42;27.48
17785;BME280;9016;53.582;10.062;2023-05-09T10:11:06;101455.00;;;25.26;26.71
17785;BME280;9016;53.582;10.062;2023-05-09T10:13:36;101462.69;;;24.65;27.37
17785;BME280;9016;53.582;10.062;2023-05-09T10:16:07;101446.81;;;25.10;27.33
17785;BME280;9016;53.582;10.062;2023-05-09T10:18:36;101444.28;;;25.41;26.90
17785;BME280;9016;53.582;10.062;2023-05-09T10:21:07;101456.88;;;25.34;26.39
17785;BME280;9016;53.582;10.062;2023-05-09T10:23:39;101430.97;;;25.14;26.92
17785;BME280;9016;53.582;10.062;2023-05-09T10:26:16;101423.78;;;24.97;27.03
17785;BME280;9016;53.582;10.062;2023-05-09T10:28:46;101418.38;;;24.55;27.06
17785;BME280;9016;53.582;10.062;2023-05-09T10:31:20;101424.16;;;24.52;27.46
17785;BME280;9016;53.582;10.062;2023-05-09T10:33:50;101417.25;;;24.74;27.21
17785;BME280;9016;53.582;10.062;2023-05-09T10:36:19;101406.47;;;24.64;27.49
17785;BME280;9016;53.582;10.062;2023-05-09T10:38:49;101400.16;;;24.64;27.17
17785;BME280;9016;53.582;10.062;2023-05-09T10:41:19;101406.09;;;24.59;27.34
17785;BME280;9016;53.582;10.062;2023-05-09T10:43:49;101396.03;;;24.51;28.05
17785;BME280;9016;53.582;10.062;2023-05-09T10:46:18;101390.72;;;24.00;28.55
17785;BME280;9016;53.582;10.062;2023-05-09T10:48:47;101383.28;;;24.02;27.95
17785;BME280;9016;53.582;10.062;2023-05-09T10:51:16;101378.59;;;23.87;28.13
17785;BME280;9016;53.582;10.062;2023-05-09T10:53:45;101380.59;;;24.18;28.21
17785;BME280;9016;53.582;10.062;2023-05-09T10:56:24;101364.69;;;23.98;27.85
17785;BME280;9016;53.582;10.062;2023-05-09T10:58:53;101365.97;;;23.86;28.25
17785;BME280;9016;53.582;10.062;2023-05-09T11:01:28;101353.16;;;23.78;29.06
17785;BME280;9016;53.582;10.062;2023-05-09T11:03:58;101357.34;;;23.98;28.28
17785;BME280;9016;53.582;10.062;2023-05-09T11:06:46;101341.25;;;24.05;28.27
17785;BME280;9016;53.582;10.062;2023-05-09T11:09:28;101350.69;;;23.93;28.02
17785;BME280;9016;53.582;10.062;2023-05-09T11:12:07;101339.63;;;23.94;27.94
17785;BME280;9016;53.582;10.062;2023-05-09T11:14:41;101334.94;;;23.71;27.95
17785;BME280;9016;53.582;10.062;2023-05-09T11:17:11;101343.84;;;23.89;27.96
17785;BME280;9016;53.582;10.062;2023-05-09T11:20:00;101335.78;;;23.71;27.83
17785;BME280;9016;53.582;10.062;2023-05-09T11:22:37;101330.16;;;23.39;27.72
17785;BME280;9016;53.582;10.062;2023-05-09T11:25:08;101320.63;;;23.35;28.22
17785;BME280;9016;53.582;10.062;2023-05-09T11:27:42;101313.63;;;23.32;28.37
17785;BME280;9016;53.582;10.062;2023-05-09T11:30:12;101325.53;;;23.31;28.22
17785;BME280;9016;53.582;10.062;2023-05-09T11:32:44;101310.09;;;22.97;28.47
17785;BME280;9016;53.582;10.062;2023-05-09T11:35:13;101316.78;;;23.28;28.44
17785;BME280;9016;53.582;10.062;2023-05-09T11:37:45;101297.81;;;23.10;28.83
17785;BME280;9016;53.582;10.062;2023-05-09T11:40:14;101294.94;;;23.12;29.07
17785;BME280;9016;53.582;10.062;2023-05-09T11:42:47;101287.19;;;23.42;29.08
17785;BME280;9016;53.582;10.062;2023-05-09T11:45:16;101279.72;;;23.52;28.22
17785;BME280;9016;53.582;10.062;2023-05-09T11:47:45;101283.91;;;23.39;28.31
17785;BME280;9016;53.582;10.062;2023-05-09T11:50:15;101267.09;;;23.18;28.40
17785;BME280;9016;53.582;10.062;2023-05-09T11:52:44;101283.16;;;23.29;28.02
17785;BME280;9016;53.582;10.062;2023-05-09T11:55:13;101281.69;;;23.17;27.38
17785;BME280;9016;53.582;10.062;2023-05-09T11:57:46;101274.47;;;23.25;27.81
17785;BME280;9016;53.582;10.062;2023-05-09T12:00:15;101275.78;;;23.21;28.16
17785;BME280;9016;53.582;10.062;2023-05-09T12:02:45;101274.13;;;23.28;28.37
17785;BME280;9016;53.582;10.062;2023-05-09T12:05:15;101268.44;;;23.14;28.75
17785;BME280;9016;53.582;10.062;2023-05-09T12:07:45;101256.31;;;23.08;28.79
17785;BME280;9016;53.582;10.062;2023-05-09T12:10:15;101263.69;;;23.16;29.08
17785;BME280;9016;53.582;10.062;2023-05-09T12:12:47;101253.56;;;23.26;28.75
17785;BME280;9016;53.582;10.062;2023-05-09T12:15:15;101247.56;;;23.22;28.52
17785;BME280;9016;53.582;10.062;2023-05-09T12:17:45;101244.00;;;23.22;28.67
17785;BME280;9016;53.582;10.062;2023-05-09T12:20:17;101250.78;;;23.18;28.96
17785;BME280;9016;53.582;10.062;2023-05-09T12:22:51;101231.38;;;23.13;28.67
17785;BME280;9016;53.582;10.062;2023-05-09T12:25:21;101245.78;;;23.31;28.58
17785;BME280;9016;53.582;10.062;2023-05-09T12:27:51;101232.56;;;23.10;28.67
17785;BME280;9016;53.582;10.062;2023-05-09T12:30:20;101236.31;;;23.17;29.17
17785;BME280;9016;53.582;10.062;2023-05-09T12:32:48;101232.63;;;23.26;28.80
17785;BME280;9016;53.582;10.062;2023-05-09T12:35:19;101240.34;;;23.31;29.06
17785;BME280;9016;53.582;10.062;2023-05-09T12:37:55;101232.22;;;23.39;28.96
17785;BME280;9016;53.582;10.062;2023-05-09T12:40:23;101233.94;;;23.40;28.85
17785;BME280;9016;53.582;10.062;2023-05-09T12:42:56;101239.81;;;23.27;29.17
17785;BME280;9016;53.582;10.062;2023-05-09T12:45:30;101230.19;;;23.41;29.45
17785;BME280;9016;53.582;10.062;2023-05-09T12:47:59;101224.91;;;23.31;28.63
17785;BME280;9016;53.582;10.062;2023-05-09T12:50:32;101242.09;;;23.14;28.71
17785;BME280;9016;53.582;10.062;2023-05-09T12:53:02;101232.28;;;23.21;28.82
17785;BME280;9016;53.582;10.062;2023-05-09T12:55:37;101235.97;;;23.38;29.10
17785;BME280;9016;53.582;10.062;2023-05-09T12:58:07;101231.38;;;23.38;29.01
17785;BME280;9016;53.582;10.062;2023-05-09T13:00:41;101230.09;;;23.25;28.90
17785;BME280;9016;53.582;10.062;2023-05-09T13:03:23;101224.47;;;23.18;28.90
17785;BME280;9016;53.582;10.062;2023-05-09T13:05:58;101230.41;;;23.22;29.25